sensor_id;sensor_type;location;lat;lon;timestamp;pressure;altitude;pressure_sealevel;temperature;humidity
72959;BME280;60008;50.826;6.896;2023-03-31T00:02:18;100015.19;;;11.71;100.00
72959;BME280;60008;50.826;6.896;2023-03-31T00:05:08;100009.91;;;11.71;100.00
72959;BME280;60008;50.826;6.896;2023-03-31T00:07:57;100002.09;;;11.69;100.00
72959;BME280;60008;50.826;6.896;2023-03-31T00:10:45;99999.91;;;11.73;100.00
72959;BME280;60008;50.826;6.896;2023-03-31T00:13:30;99993.41;;;11.75;100.00
72959;BME280;60008;50.826;6.896;2023-03-31T00:16:15;99995.97;;;11.69;100.00
72959;BME280;60008;50.826;6.896;2023-03-31T00:19:00;99988.06;;;11.61;100.00
72959;BME280;60008;50.826;6.896;2023-03-31T00:21:47;99977.19;;;11.56;100.00
72959;BME280;60008;50.826;6.896;2023-03-31T00:24:33;99972.09;;;11.54;100.00
72959;BME280;60008;50.826;6.896;2023-03-31T00:27:18;99970.44;;;11.53;100.00
72959;BME280;60008;50.826;6.896;2023-03-31T00:30:03;99968.13;;;11.50;100.00
72959;BME280;60008;50.826;6.896;2023-03-31T00:32:48;99951.13;;;11.45;100.00
72959;BME280;60008;50.826;6.896;2023-03-31T00:35:34;99956.28;;;11.46;100.00
72959;BME280;60008;50.826;6.896;2023-03-31T00:38:22;99950.69;;;11.41;100.00
72959;BME280;60008;50.826;6.896;2023-03-31T00:41:07;99928.19;;;11.37;100.00
72959;BME280;60008;50.826;6.896;2023-03-31T00:47:04;99920.06;;;11.39;100.00
72959;BME280;60008;50.826;6.896;2023-03-31T00:49:53;99916.47;;;11.31;100.00
72959;BME280;60008;50.826;6.896;2023-03-31T00:52:40;99906.81;;;11.24;100.00
72959;BME280;60008;50.826;6.896;2023-03-31T00:55:39;99904.53;;;11.21;100.00
72959;BME280;60008;50.826;6.896;2023-03-31T00:58:25;99898.94;;;11.16;100.00
72959;BME280;60008;50.826;6.896;2023-03-31T01:01:15;99895.00;;;11.12;100.00
72959;BME280;60008;50.826;6.896;2023-03-31T01:04:03;99887.00;;;11.05;100.00
72959;BME280;60008;50.826;6.896;2023-03-31T01:06:57;99880.38;;;11.01;100.00
72959;BME280;60008;50.826;6.896;2023-03-31T01:09:45;99881.59;;;10.99;100.00
72959;BME280;60008;50.826;6.896;2023-03-31T01:12:33;99878.66;;;10.94;100.00
72959;BME280;60008;50.826;6.896;2023-03-31T01:15:20;99885.16;;;10.91;100.00
72959;BME280;60008;50.826;6.896;2023-03-31T01:18:06;99870.25;;;10.90;100.00
72959;BME280;60008;50.826;6.896;2023-03-31T01:27:28;99854.06;;;10.85;100.00
72959;BME280;60008;50.826;6.896;2023-03-31T01:40:17;99843.53;;;11.06;100.00
72959;BME280;60008;50.826;6.896;2023-03-31T01:46:31;99835.47;;;11.14;100.00
72959;BME280;60008;50.826;6.896;2023-03-31T01:52:39;99818.28;;;11.25;100.00
72959;BME280;60008;50.826;6.896;2023-03-31T01:55:35;99814.78;;;11.24;100.00
72959;BME280;60008;50.826;6.896;2023-03-31T01:58:42;99816.00;;;11.22;100.00
72959;BME280;60008;50.826;6.896;2023-03-31T02:01:31;99807.78;;;11.17;100.00
72959;BME280;60008;50.826;6.896;2023-03-31T02:04:25;99818.19;;;11.18;100.00
72959;BME280;60008;50.826;6.896;2023-03-31T02:07:18;99814.09;;;11.16;100.00
72959;BME280;60008;50.826;6.896;2023-03-31T02:10:08;99809.16;;;11.13;100.00
72959;BME280;60008;50.826;6.896;2023-03-31T02:12:56;99805.22;;;11.09;100.00
72959;BME280;60008;50.826;6.896;2023-03-31T02:15:47;99791.63;;;10.97;100.00
72959;BME280;60008;50.826;6.896;2023-03-31T02:18:36;99782.94;;;11.03;100.00
72959;BME280;60008;50.826;6.896;2023-03-31T02:21:21;99774.16;;;11.03;100.00
72959;BME280;60008;50.826;6.896;2023-03-31T02:24:10;99767.22;;;11.02;100.00
72959;BME280;60008;50.826;6.896;2023-03-31T02:27:24;99751.03;;;10.97;100.00
72959;BME280;60008;50.826;6.896;2023-03-31T02:30:11;99735.31;;;10.95;100.00
72959;BME280;60008;50.826;6.896;2023-03-31T02:32:58;99734.25;;;10.90;100.00
72959;BME280;60008;50.826;6.896;2023-03-31T02:35:43;99731.59;;;10.90;100.00
72959;BME280;60008;50.826;6.896;2023-03-31T02:38:32;99728.75;;;10.91;100.00
72959;BME280;60008;50.826;6.896;2023-03-31T02:41:19;99729.13;;;10.88;100.00
72959;BME280;60008;50.826;6.896;2023-03-31T02:44:04;99716.69;;;10.89;100.00
72959;BME280;60008;50.826;6.896;2023-03-31T02:46:50;99699.97;;;10.88;100.00
72959;BME280;60008;50.826;6.896;2023-03-31T02:49:37;99662.28;;;10.93;100.00
72959;BME280;60008;50.826;6.896;2023-03-31T02:52:51;99652.88;;;10.90;100.00
72959;BME280;60008;50.826;6.896;2023-03-31T02:56:08;99634.56;;;10.95;100.00
72959;BME280;60008;50.826;6.896;2023-03-31T03:02:07;99635.84;;;10.78;100.00
72959;BME280;60008;50.826;6.896;2023-03-31T03:05:35;99635.78;;;10.71;100.00
72959;BME280;60008;50.826;6.896;2023-03-31T03:08:30;99621.97;;;10.76;100.00
72959;BME280;60008;50.826;6.896;2023-03-31T03:11:28;99617.47;;;10.76;100.00
72959;BME280;60008;50.826;6.896;2023-03-31T03:20:13;99635.53;;;10.66;100.00
72959;BME280;60008;50.826;6.896;2023-03-31T03:23:00;99616.97;;;10.66;100.00
72959;BME280;60008;50.826;6.896;2023-03-31T03:25:45;99600.06;;;10.67;100.00
72959;BME280;60008;50.826;6.896;2023-03-31T03:28:30;99596.66;;;10.73;100.00
72959;BME280;60008;50.826;6.896;2023-03-31T03:31:16;99576.09;;;10.75;100.00
72959;BME280;60008;50.826;6.896;2023-03-31T03:34:01;99578.31;;;10.72;100.00
72959;BME280;60008;50.826;6.896;2023-03-31T03:36:46;99567.91;;;10.70;100.00
72959;BME280;60008;50.826;6.896;2023-03-31T03:39:31;99552.19;;;10.69;100.00
72959;BME280;60008;50.826;6.896;2023-03-31T03:42:16;99550.47;;;10.83;100.00
72959;BME280;60008;50.826;6.896;2023-03-31T03:45:01;99537.66;;;10.86;100.00
72959;BME280;60008;50.826;6.896;2023-03-31T03:47:46;99540.34;;;10.93;100.00
72959;BME280;60008;50.826;6.896;2023-03-31T03:50:34;99540.41;;;10.99;100.00
72959;BME280;60008;50.826;6.896;2023-03-31T03:53:19;99537.53;;;11.01;100.00
72959;BME280;60008;50.826;6.896;2023-03-31T03:56:05;99531.34;;;11.15;100.00
72959;BME280;60008;50.826;6.896;2023-03-31T03:58:50;99518.22;;;11.07;100.00
72959;BME280;60008;50.826;6.896;2023-03-31T04:01:35;99507.81;;;11.05;100.00
72959;BME280;60008;50.826;6.896;2023-03-31T04:04:21;99510.63;;;10.97;100.00
72959;BME280;60008;50.826;6.896;2023-03-31T04:07:06;99495.28;;;10.93;100.00
72959;BME280;60008;50.826;6.896;2023-03-31T04:09:51;99502.44;;;10.92;100.00
72959;BME280;60008;50.826;6.896;2023-03-31T04:12:36;99496.09;;;10.93;100.00
72959;BME280;60008;50.826;6.896;2023-03-31T04:15:22;99480.81;;;10.95;100.00
72959;BME280;60008;50.826;6.896;2023-03-31T04:18:07;99458.00;;;10.94;100.00
72959;BME280;60008;50.826;6.896;2023-03-31T04:20:55;99456.09;;;10.88;100.00
72959;BME280;60008;50.826;6.896;2023-03-31T04:23:51;99447.16;;;10.89;100.00
72959;BME280;60008;50.826;6.896;2023-03-31T04:26:42;99432.88;;;10.90;100.00
72959;BME280;60008;50.826;6.896;2023-03-31T04:29:27;99414.91;;;10.86;100.00
72959;BME280;60008;50.826;6.896;2023-03-31T04:32:12;99406.19;;;10.92;100.00
72959;BME280;60008;50.826;6.896;2023-03-31T04:35:05;99402.47;;;10.86;100.00
72959;BME280;60008;50.826;6.896;2023-03-31T04:37:52;99385.13;;;10.84;100.00
72959;BME280;60008;50.826;6.896;2023-03-31T04:40:42;99383.31;;;10.84;100.00
72959;BME280;60008;50.826;6.896;2023-03-31T04:43:27;99394.28;;;10.81;100.00
72959;BME280;60008;50.826;6.896;2023-03-31T04:46:12;99382.88;;;10.81;100.00
72959;BME280;60008;50.826;6.896;2023-03-31T04:48:57;99370.66;;;10.86;100.00
72959;BME280;60008;50.826;6.896;2023-03-31T04:51:43;99362.91;;;10.85;100.00
72959;BME280;60008;50.826;6.896;2023-03-31T04:54:29;99355.97;;;10.84;100.00
72959;BME280;60008;50.826;6.896;2023-03-31T04:57:14;99330.09;;;10.86;100.00
72959;BME280;60008;50.826;6.896;2023-03-31T04:59:58;99343.38;;;10.92;100.00
72959;BME280;60008;50.826;6.896;2023-03-31T05:02:43;99322.97;;;10.93;100.00
72959;BME280;60008;50.826;6.896;2023-03-31T05:05:28;99316.28;;;10.97;100.00
72959;BME280;60008;50.826;6.896;2023-03-31T05:08:14;99319.38;;;11.00;100.00
72959;BME280;60008;50.826;6.896;2023-03-31T05:10:59;99308.75;;;11.07;100.00
72959;BME280;60008;50.826;6.896;2023-03-31T05:13:44;99303.84;;;10.97;100.00
72959;BME280;60008;50.826;6.896;2023-03-31T05:16:29;99288.94;;;10.96;100.00
72959;BME280;60008;50.826;6.896;2023-03-31T05:19:14;99283.22;;;10.93;100.00
72959;BME280;60008;50.826;6.896;2023-03-31T05:21:59;99278.56;;;10.95;100.00
72959;BME280;60008;50.826;6.896;2023-03-31T05:24:44;99283.66;;;10.96;100.00
72959;BME280;60008;50.826;6.896;2023-03-31T05:27:29;99281.00;;;10.96;100.00
72959;BME280;60008;50.826;6.896;2023-03-31T05:30:15;99277.53;;;10.96;100.00
72959;BME280;60008;50.826;6.896;2023-03-31T05:33:01;99276.31;;;10.92;100.00
72959;BME280;60008;50.826;6.896;2023-03-31T05:35:46;99269.22;;;11.05;100.00
72959;BME280;60008;50.826;6.896;2023-03-31T05:38:31;99261.06;;;11.13;100.00
72959;BME280;60008;50.826;6.896;2023-03-31T05:41:18;99264.16;;;11.23;100.00
72959;BME280;60008;50.826;6.896;2023-03-31T05:44:05;99249.66;;;11.19;100.00
72959;BME280;60008;50.826;6.896;2023-03-31T05:46:50;99236.81;;;11.16;100.00
72959;BME280;60008;50.826;6.896;2023-03-31T05:49:35;99246.38;;;11.17;100.00
72959;BME280;60008;50.826;6.896;2023-03-31T05:52:20;99245.16;;;11.13;100.00
72959;BME280;60008;50.826;6.896;2023-03-31T05:55:05;99255.78;;;11.13;100.00
72959;BME280;60008;50.826;6.896;2023-03-31T05:57:50;99257.81;;;11.11;100.00
72959;BME280;60008;50.826;6.896;2023-03-31T06:00:36;99256.16;;;11.10;100.00
72959;BME280;60008;50.826;6.896;2023-03-31T06:03:21;99251.25;;;11.07;100.00
72959;BME280;60008;50.826;6.896;2023-03-31T06:06:07;99256.34;;;11.02;100.00
72959;BME280;60008;50.826;6.896;2023-03-31T06:08:53;99254.91;;;11.00;100.00
72959;BME280;60008;50.826;6.896;2023-03-31T06:11:38;99241.66;;;11.00;100.00
72959;BME280;60008;50.826;6.896;2023-03-31T06:14:23;99237.16;;;10.94;100.00
72959;BME280;60008;50.826;6.896;2023-03-31T06:17:08;99234.50;;;10.94;100.00
72959;BME280;60008;50.826;6.896;2023-03-31T06:19:53;99236.72;;;10.84;100.00
72959;BME280;60008;50.826;6.896;2023-03-31T06:22:38;99230.38;;;10.78;100.00
72959;BME280;60008;50.826;6.896;2023-03-31T06:25:22;99225.69;;;10.80;100.00
72959;BME280;60008;50.826;6.896;2023-03-31T06:28:08;99226.94;;;10.84;100.00
72959;BME280;60008;50.826;6.896;2023-03-31T06:31:03;99219.22;;;10.89;100.00
72959;BME280;60008;50.826;6.896;2023-03-31T06:33:49;99212.47;;;10.93;100.00
72959;BME280;60008;50.826;6.896;2023-03-31T06:36:34;99209.25;;;10.98;100.00
72959;BME280;60008;50.826;6.896;2023-03-31T06:39:20;99205.38;;;11.00;100.00
72959;BME280;60008;50.826;6.896;2023-03-31T06:42:05;99205.97;;;11.02;100.00
72959;BME280;60008;50.826;6.896;2023-03-31T06:44:51;99198.22;;;11.01;100.00
72959;BME280;60008;50.826;6.896;2023-03-31T06:47:36;99195.59;;;11.07;100.00
72959;BME280;60008;50.826;6.896;2023-03-31T06:50:25;99200.91;;;11.14;100.00
72959;BME280;60008;50.826;6.896;2023-03-31T06:53:10;99194.56;;;11.15;100.00
72959;BME280;60008;50.826;6.896;2023-03-31T06:55:55;99194.59;;;11.21;100.00
72959;BME280;60008;50.826;6.896;2023-03-31T06:58:40;99176.84;;;11.22;100.00
72959;BME280;60008;50.826;6.896;2023-03-31T07:01:25;99178.88;;;11.26;100.00
72959;BME280;60008;50.826;6.896;2023-03-31T07:04:10;99177.66;;;11.35;100.00
72959;BME280;60008;50.826;6.896;2023-03-31T07:06:57;99179.72;;;11.47;100.00
72959;BME280;60008;50.826;6.896;2023-03-31T07:09:42;99172.56;;;11.54;100.00
72959;BME280;60008;50.826;6.896;2023-03-31T07:12:27;99171.13;;;11.51;100.00
72959;BME280;60008;50.826;6.896;2023-03-31T07:15:12;99161.94;;;11.54;100.00
72959;BME280;60008;50.826;6.896;2023-03-31T07:17:57;99176.22;;;11.53;100.00
72959;BME280;60008;50.826;6.896;2023-03-31T07:20:49;99166.66;;;11.52;100.00
72959;BME280;60008;50.826;6.896;2023-03-31T07:23:34;99163.59;;;11.55;100.00
72959;BME280;60008;50.826;6.896;2023-03-31T07:26:19;99166.03;;;11.56;100.00
72959;BME280;60008;50.826;6.896;2023-03-31T07:29:05;99167.03;;;11.68;100.00
72959;BME280;60008;50.826;6.896;2023-03-31T07:31:50;99161.94;;;11.54;100.00
72959;BME280;60008;50.826;6.896;2023-03-31T07:34:36;99152.75;;;11.69;100.00
72959;BME280;60008;50.826;6.896;2023-03-31T07:37:21;99161.94;;;11.86;100.00
72959;BME280;60008;50.826;6.896;2023-03-31T07:40:11;99157.03;;;11.77;100.00
72959;BME280;60008;50.826;6.896;2023-03-31T07:42:57;99163.16;;;11.84;100.00
72959;BME280;60008;50.826;6.896;2023-03-31T07:45:42;99159.66;;;11.97;100.00
72959;BME280;60008;50.826;6.896;2023-03-31T07:48:26;99155.38;;;11.96;100.00
72959;BME280;60008;50.826;6.896;2023-03-31T07:51:14;99162.47;;;12.15;100.00
72959;BME280;60008;50.826;6.896;2023-03-31T07:53:59;99158.78;;;12.22;100.00
72959;BME280;60008;50.826;6.896;2023-03-31T07:56:44;99160.72;;;12.46;100.00
72959;BME280;60008;50.826;6.896;2023-03-31T07:59:29;99157.78;;;12.61;100.00
72959;BME280;60008;50.826;6.896;2023-03-31T08:02:15;99142.75;;;12.80;100.00
72959;BME280;60008;50.826;6.896;2023-03-31T08:05:01;99147.03;;;12.81;100.00
72959;BME280;60008;50.826;6.896;2023-03-31T08:07:48;99133.84;;;12.99;100.00
72959;BME280;60008;50.826;6.896;2023-03-31T08:10:33;99131.78;;;13.01;100.00
72959;BME280;60008;50.826;6.896;2023-03-31T08:13:18;99118.63;;;13.06;100.00
72959;BME280;60008;50.826;6.896;2023-03-31T08:16:03;99123.25;;;12.92;100.00
72959;BME280;60008;50.826;6.896;2023-03-31T08:18:49;99113.47;;;12.86;100.00
72959;BME280;60008;50.826;6.896;2023-03-31T08:21:34;99129.28;;;13.06;100.00
72959;BME280;60008;50.826;6.896;2023-03-31T08:24:19;99120.41;;;12.87;100.00
72959;BME280;60008;50.826;6.896;2023-03-31T08:27:04;99128.16;;;12.89;100.00
72959;BME280;60008;50.826;6.896;2023-03-31T08:29:55;99116.50;;;12.90;100.00
72959;BME280;60008;50.826;6.896;2023-03-31T08:32:40;99114.31;;;12.80;100.00
72959;BME280;60008;50.826;6.896;2023-03-31T08:35:24;99118.94;;;12.91;100.00
72959;BME280;60008;50.826;6.896;2023-03-31T08:38:10;99112.38;;;12.94;100.00
72959;BME280;60008;50.826;6.896;2023-03-31T08:41:01;99096.81;;;12.97;100.00
72959;BME280;60008;50.826;6.896;2023-03-31T08:43:48;99103.69;;;13.05;100.00
72959;BME280;60008;50.826;6.896;2023-03-31T08:46:34;99098.56;;;13.10;100.00
72959;BME280;60008;50.826;6.896;2023-03-31T08:49:20;99098.59;;;13.78;100.00
72959;BME280;60008;50.826;6.896;2023-03-31T08:52:11;99093.69;;;14.88;100.00
72959;BME280;60008;50.826;6.896;2023-03-31T08:55:01;99089.94;;;14.78;100.00
72959;BME280;60008;50.826;6.896;2023-03-31T09:04:28;99077.19;;;17.59;100.00
72959;BME280;60008;50.826;6.896;2023-03-31T09:19:31;99077.75;;;16.09;100.00
72959;BME280;60008;50.826;6.896;2023-03-31T09:22:35;99073.72;;;15.95;100.00
72959;BME280;60008;50.826;6.896;2023-03-31T09:25:30;99067.41;;;15.50;100.00
72959;BME280;60008;50.826;6.896;2023-03-31T09:28:32;99062.25;;;15.02;100.00
72959;BME280;60008;50.826;6.896;2023-03-31T09:31:19;99060.59;;;14.89;100.00
72959;BME280;60008;50.826;6.896;2023-03-31T09:34:12;99059.53;;;14.67;100.00
72959;BME280;60008;50.826;6.896;2023-03-31T09:36:58;99064.34;;;14.29;100.00
72959;BME280;60008;50.826;6.896;2023-03-31T09:39:43;99076.25;;;13.97;100.00
72959;BME280;60008;50.826;6.896;2023-03-31T09:42:28;99083.56;;;13.83;100.00
72959;BME280;60008;50.826;6.896;2023-03-31T09:45:16;99069.84;;;13.98;100.00
72959;BME280;60008;50.826;6.896;2023-03-31T09:48:05;99051.16;;;14.64;100.00
72959;BME280;60008;50.826;6.896;2023-03-31T09:50:58;99046.84;;;15.39;100.00
72959;BME280;60008;50.826;6.896;2023-03-31T09:54:08;99033.97;;;15.13;100.00
72959;BME280;60008;50.826;6.896;2023-03-31T09:56:54;99026.31;;;15.16;100.00
72959;BME280;60008;50.826;6.896;2023-03-31T09:59:39;99027.91;;;15.17;100.00
72959;BME280;60008;50.826;6.896;2023-03-31T10:02:36;99029.66;;;14.88;100.00
72959;BME280;60008;50.826;6.896;2023-03-31T10:05:53;99025.66;;;14.56;100.00
72959;BME280;60008;50.826;6.896;2023-03-31T10:08:42;99022.69;;;14.35;100.00
72959;BME280;60008;50.826;6.896;2023-03-31T10:11:28;99040.19;;;14.12;100.00
72959;BME280;60008;50.826;6.896;2023-03-31T10:14:13;99041.31;;;14.05;100.00
72959;BME280;60008;50.826;6.896;2023-03-31T10:17:03;99033.38;;;13.98;100.00
72959;BME280;60008;50.826;6.896;2023-03-31T10:19:51;99042.06;;;13.94;100.00
72959;BME280;60008;50.826;6.896;2023-03-31T10:22:42;99033.00;;;14.13;100.00
72959;BME280;60008;50.826;6.896;2023-03-31T10:25:28;99017.53;;;14.03;100.00
72959;BME280;60008;50.826;6.896;2023-03-31T10:28:18;99025.59;;;14.15;100.00
72959;BME280;60008;50.826;6.896;2023-03-31T10:31:04;99016.84;;;14.08;100.00
72959;BME280;60008;50.826;6.896;2023-03-31T10:33:51;99016.91;;;14.38;100.00
72959;BME280;60008;50.826;6.896;2023-03-31T10:36:37;99016.72;;;14.51;100.00
72959;BME280;60008;50.826;6.896;2023-03-31T10:39:28;99015.00;;;14.56;100.00
72959;BME280;60008;50.826;6.896;2023-03-31T10:42:20;99037.41;;;13.71;100.00
72959;BME280;60008;50.826;6.896;2023-03-31T10:45:11;99052.13;;;13.55;100.00
72959;BME280;60008;50.826;6.896;2023-03-31T10:48:17;99043.69;;;13.77;100.00
72959;BME280;60008;50.826;6.896;2023-03-31T10:54:00;99040.69;;;12.81;100.00
72959;BME280;60008;50.826;6.896;2023-03-31T10:56:50;99033.72;;;13.11;100.00
72959;BME280;60008;50.826;6.896;2023-03-31T11:05:50;99031.53;;;12.77;100.00
72959;BME280;60008;50.826;6.896;2023-03-31T11:08:59;99021.22;;;12.87;100.00
72959;BME280;60008;50.826;6.896;2023-03-31T11:12:07;99015.94;;;13.05;100.00
72959;BME280;60008;50.826;6.896;2023-03-31T11:15:21;99012.25;;;13.06;100.00
72959;BME280;60008;50.826;6.896;2023-03-31T11:18:32;99004.78;;;13.57;100.00
72959;BME280;60008;50.826;6.896;2023-03-31T11:21:29;99003.44;;;13.85;100.00
72959;BME280;60008;50.826;6.896;2023-03-31T11:24:45;99000.72;;;13.73;100.00
72959;BME280;60008;50.826;6.896;2023-03-31T11:30:42;98986.38;;;13.74;100.00
72959;BME280;60008;50.826;6.896;2023-03-31T11:42:21;98982.53;;;14.00;100.00
72959;BME280;60008;50.826;6.896;2023-03-31T11:45:17;98976.13;;;14.19;100.00
72959;BME280;60008;50.826;6.896;2023-03-31T11:48:08;98977.81;;;14.02;100.00
72959;BME280;60008;50.826;6.896;2023-03-31T11:50:56;98979.09;;;14.11;100.00
72959;BME280;60008;50.826;6.896;2023-03-31T11:53:44;98973.63;;;14.24;100.00
72959;BME280;60008;50.826;6.896;2023-03-31T11:56:34;98975.81;;;13.97;100.00
72959;BME280;60008;50.826;6.896;2023-03-31T11:59:21;98968.81;;;14.14;100.00
72959;BME280;60008;50.826;6.896;2023-03-31T12:02:18;98960.34;;;14.36;100.00
72959;BME280;60008;50.826;6.896;2023-03-31T12:05:08;98950.78;;;14.69;100.00
72959;BME280;60008;50.826;6.896;2023-03-31T12:08:00;98946.97;;;14.88;100.00
72959;BME280;60008;50.826;6.896;2023-03-31T12:14:22;98948.81;;;15.00;100.00
72959;BME280;60008;50.826;6.896;2023-03-31T12:17:14;98933.16;;;14.92;100.00
72959;BME280;60008;50.826;6.896;2023-03-31T12:20:12;98941.84;;;15.10;100.00
72959;BME280;60008;50.826;6.896;2023-03-31T12:23:00;98928.34;;;15.17;100.00
72959;BME280;60008;50.826;6.896;2023-03-31T12:25:59;98920.63;;;14.46;100.00
72959;BME280;60008;50.826;6.896;2023-03-31T12:28:47;98935.00;;;14.91;100.00
72959;BME280;60008;50.826;6.896;2023-03-31T12:31:37;98930.25;;;14.70;100.00
72959;BME280;60008;50.826;6.896;2023-03-31T12:34:25;98928.03;;;14.78;100.00
72959;BME280;60008;50.826;6.896;2023-03-31T12:55:56;98897.06;;;15.12;100.00
72959;BME280;60008;50.826;6.896;2023-03-31T12:58:43;98893.72;;;14.94;100.00
72959;BME280;60008;50.826;6.896;2023-03-31T13:01:28;98896.38;;;14.70;100.00
72959;BME280;60008;50.826;6.896;2023-03-31T13:04:19;98897.22;;;14.59;100.00
72959;BME280;60008;50.826;6.896;2023-03-31T13:07:34;98926.50;;;14.36;100.00
72959;BME280;60008;50.826;6.896;2023-03-31T13:10:25;98950.38;;;13.17;100.00
72959;BME280;60008;50.826;6.896;2023-03-31T13:13:15;98919.66;;;12.78;100.00
72959;BME280;60008;50.826;6.896;2023-03-31T13:16:01;98929.34;;;12.91;100.00
72959;BME280;60008;50.826;6.896;2023-03-31T13:18:54;98929.72;;;12.94;100.00
72959;BME280;60008;50.826;6.896;2023-03-31T13:24:38;98918.59;;;13.22;100.00
72959;BME280;60008;50.826;6.896;2023-03-31T13:27:29;98909.69;;;13.64;100.00
72959;BME280;60008;50.826;6.896;2023-03-31T13:33:40;98899.69;;;14.31;100.00
72959;BME280;60008;50.826;6.896;2023-03-31T13:39:31;98894.59;;;14.18;100.00
72959;BME280;60008;50.826;6.896;2023-03-31T13:45:55;98891.75;;;14.54;100.00
72959;BME280;60008;50.826;6.896;2023-03-31T13:49:11;98879.69;;;14.52;100.00
72959;BME280;60008;50.826;6.896;2023-03-31T13:52:09;98895.69;;;14.40;100.00
72959;BME280;60008;50.826;6.896;2023-03-31T14:04:52;98905.19;;;14.48;100.00
72959;BME280;60008;50.826;6.896;2023-03-31T14:07:51;98889.09;;;14.43;100.00
72959;BME280;60008;50.826;6.896;2023-03-31T14:10:39;98893.50;;;14.37;100.00
72959;BME280;60008;50.826;6.896;2023-03-31T14:13:25;98874.53;;;14.27;100.00
72959;BME280;60008;50.826;6.896;2023-03-31T14:16:11;98874.06;;;14.30;100.00
72959;BME280;60008;50.826;6.896;2023-03-31T14:19:16;98866.38;;;14.40;100.00
72959;BME280;60008;50.826;6.896;2023-03-31T14:34:10;98851.69;;;15.12;100.00
72959;BME280;60008;50.826;6.896;2023-03-31T14:37:02;98847.00;;;14.79;100.00
72959;BME280;60008;50.826;6.896;2023-03-31T14:39:50;98849.66;;;14.68;100.00
72959;BME280;60008;50.826;6.896;2023-03-31T14:42:38;98839.00;;;14.68;100.00
72959;BME280;60008;50.826;6.896;2023-03-31T14:45:25;98845.28;;;14.50;100.00
72959;BME280;60008;50.826;6.896;2023-03-31T14:48:14;98834.41;;;14.40;100.00
72959;BME280;60008;50.826;6.896;2023-03-31T14:51:01;98836.22;;;14.51;100.00
72959;BME280;60008;50.826;6.896;2023-03-31T14:53:47;98832.75;;;14.39;100.00
72959;BME280;60008;50.826;6.896;2023-03-31T14:56:37;98835.66;;;14.38;100.00
72959;BME280;60008;50.826;6.896;2023-03-31T14:59:27;98839.72;;;14.40;100.00
72959;BME280;60008;50.826;6.896;2023-03-31T15:02:27;98834.41;;;14.40;100.00
72959;BME280;60008;50.826;6.896;2023-03-31T15:05:24;98840.75;;;14.39;100.00
72959;BME280;60008;50.826;6.896;2023-03-31T15:08:19;98846.53;;;14.36;100.00
72959;BME280;60008;50.826;6.896;2023-03-31T15:11:14;98831.38;;;14.37;100.00
72959;BME280;60008;50.826;6.896;2023-03-31T15:14:03;98840.50;;;14.29;100.00
72959;BME280;60008;50.826;6.896;2023-03-31T15:16:50;98859.03;;;14.24;100.00
72959;BME280;60008;50.826;6.896;2023-03-31T15:19:34;98843.75;;;14.31;100.00
72959;BME280;60008;50.826;6.896;2023-03-31T15:22:21;98849.03;;;14.19;100.00
72959;BME280;60008;50.826;6.896;2023-03-31T15:25:12;98831.44;;;14.07;100.00
72959;BME280;60008;50.826;6.896;2023-03-31T15:28:03;98842.31;;;14.05;100.00
72959;BME280;60008;50.826;6.896;2023-03-31T15:30:50;98846.13;;;13.98;100.00
72959;BME280;60008;50.826;6.896;2023-03-31T15:33:55;98844.97;;;13.94;100.00
72959;BME280;60008;50.826;6.896;2023-03-31T15:36:40;98848.09;;;14.02;100.00
72959;BME280;60008;50.826;6.896;2023-03-31T15:39:29;98861.19;;;14.04;100.00
72959;BME280;60008;50.826;6.896;2023-03-31T15:42:16;98851.06;;;13.94;100.00
72959;BME280;60008;50.826;6.896;2023-03-31T15:48:33;98856.28;;;13.89;100.00
72959;BME280;60008;50.826;6.896;2023-03-31T15:51:27;98868.66;;;13.84;100.00
72959;BME280;60008;50.826;6.896;2023-03-31T15:54:40;98854.69;;;13.88;100.00
72959;BME280;60008;50.826;6.896;2023-03-31T15:57:34;98853.38;;;13.79;100.00
72959;BME280;60008;50.826;6.896;2023-03-31T16:03:33;98865.16;;;13.71;100.00
72959;BME280;60008;50.826;6.896;2023-03-31T16:06:52;98864.91;;;13.61;100.00
72959;BME280;60008;50.826;6.896;2023-03-31T16:09:44;98858.38;;;13.57;100.00
72959;BME280;60008;50.826;6.896;2023-03-31T16:12:35;98880.00;;;13.49;100.00
72959;BME280;60008;50.826;6.896;2023-03-31T16:15:30;98890.31;;;13.28;100.00
72959;BME280;60008;50.826;6.896;2023-03-31T16:21:10;98878.66;;;12.86;100.00
72959;BME280;60008;50.826;6.896;2023-03-31T16:23:58;98890.13;;;12.86;100.00
72959;BME280;60008;50.826;6.896;2023-03-31T16:26:43;98888.19;;;12.75;100.00
72959;BME280;60008;50.826;6.896;2023-03-31T16:29:29;98888.16;;;12.57;100.00
72959;BME280;60008;50.826;6.896;2023-03-31T16:32:18;98891.19;;;12.61;100.00
72959;BME280;60008;50.826;6.896;2023-03-31T16:35:03;98889.19;;;12.56;100.00
72959;BME280;60008;50.826;6.896;2023-03-31T16:37:53;98887.66;;;12.67;100.00
72959;BME280;60008;50.826;6.896;2023-03-31T16:40:40;98884.19;;;12.66;100.00
72959;BME280;60008;50.826;6.896;2023-03-31T16:43:29;98877.72;;;12.55;100.00
72959;BME280;60008;50.826;6.896;2023-03-31T16:46:14;98871.19;;;12.58;100.00
72959;BME280;60008;50.826;6.896;2023-03-31T16:48:59;98872.41;;;12.55;100.00
72959;BME280;60008;50.826;6.896;2023-03-31T16:51:44;98864.44;;;12.55;100.00
72959;BME280;60008;50.826;6.896;2023-03-31T16:54:30;98868.00;;;12.49;100.00
72959;BME280;60008;50.826;6.896;2023-03-31T16:57:14;98859.94;;;12.56;100.00
72959;BME280;60008;50.826;6.896;2023-03-31T17:00:00;98863.03;;;12.53;100.00
72959;BME280;60008;50.826;6.896;2023-03-31T17:02:45;98859.13;;;12.55;100.00
72959;BME280;60008;50.826;6.896;2023-03-31T17:05:36;98865.41;;;12.61;100.00
72959;BME280;60008;50.826;6.896;2023-03-31T17:08:24;98848.16;;;12.70;100.00